Time,TemperatureF,DewpointF,PressureIn,WindDirection,WindDirectionDegrees,WindSpeedMPH,WindSpeedGustMPH,Humidity,HourlyPrecipIn,Conditions,Clouds,dailyrainin,SoftwareType,DateUTC
2013-02-23 00:04:00,37.8,32.5,30.06,NE,45,0.0,-999.0,81,0.00,,,0.00,open2300 v1.10,2013-02-23 06:04:00,
2013-02-23 00:11:00,37.6,32.0,30.06,NNE,22,0.0,-999.0,80,0.00,,,0.00,open2300 v1.10,2013-02-23 06:11:00,
2013-02-23 00:18:00,37.2,31.6,30.06,NNE,22,0.0,-999.0,80,0.00,,,0.00,open2300 v1.10,2013-02-23 06:18:00,
2013-02-23 00:26:00,37.2,31.6,30.06,NNE,22,0.0,-999.0,80,0.00,,,0.00,open2300 v1.10,2013-02-23 06:26:00,
2013-02-23 00:33:00,36.9,31.3,30.06,NNE,22,0.0,-999.0,80,0.00,,,0.00,open2300 v1.10,2013-02-23 06:33:00,
2013-02-23 00:41:00,36.5,30.9,30.05,NNE,22,0.0,-999.0,80,0.00,,,0.00,open2300 v1.10,2013-02-23 06:41:00,
2013-02-23 00:48:00,36.1,30.6,30.07,NE,45,0.0,-999.0,80,0.00,,,0.00,open2300 v1.10,2013-02-23 06:48:00,
2013-02-23 00:56:00,35.8,30.2,30.07,NE,45,0.0,-999.0,80,0.00,,,0.00,open2300 v1.10,2013-02-23 06:56:00,
2013-02-23 01:06:00,35.4,29.8,30.06,NE,45,0.0,-999.0,80,0.00,,,0.00,open2300 v1.10,2013-02-23 07:06:00,
2013-02-23 01:11:00,35.4,29.8,30.06,NNE,22,0.0,-999.0,80,0.00,,,0.00,open2300 v1.10,2013-02-23 07:11:00,
2013-02-23 01:18:00,35.2,29.3,30.06,NNE,22,0.0,-999.0,79,0.00,,,0.00,open2300 v1.10,2013-02-23 07:18:00,
2013-02-23 01:26:00,34.7,28.8,30.06,NNE,22,0.0,-999.0,79,0.00,,,0.00,open2300 v1.10,2013-02-23 07:26:00,
2013-02-23 01:33:00,34.3,28.8,30.07,NE,45,0.0,-999.0,80,0.00,,,0.00,open2300 v1.10,2013-02-23 07:33:00,
2013-02-23 01:41:00,34.3,28.4,30.06,NE,45,0.0,-999.0,79,0.00,,,0.00,open2300 v1.10,2013-02-23 07:41:00,
2013-02-23 01:48:00,34.0,28.4,30.05,NE,45,0.0,-999.0,80,0.00,,,0.00,open2300 v1.10,2013-02-23 07:48:00,
2013-02-23 01:56:00,33.6,27.7,30.05,NE,45,0.0,-999.0,79,0.00,,,0.00,open2300 v1.10,2013-02-23 07:56:00,
2013-02-23 02:04:00,33.1,27.6,30.05,NE,45,0.0,-999.0,80,0.00,,,0.00,open2300 v1.10,2013-02-23 08:04:00,
2013-02-23 02:11:00,32.9,27.4,30.05,NE,45,0.0,-999.0,80,0.00,,,0.00,open2300 v1.10,2013-02-23 08:11:00,
2013-02-23 02:18:00,32.7,27.2,30.05,NE,45,0.0,-999.0,80,0.00,,,0.00,open2300 v1.10,2013-02-23 08:18:00,
2013-02-23 02:26:00,32.4,27.2,30.06,NE,45,0.0,-999.0,81,0.00,,,0.00,open2300 v1.10,2013-02-23 08:26:00,
2013-02-23 02:33:00,32.2,27.0,30.05,NE,45,0.0,-999.0,81,0.00,,,0.00,open2300 v1.10,2013-02-23 08:33:00,
2013-02-23 02:41:00,31.8,26.7,30.06,NE,45,0.0,-999.0,81,0.00,,,0.00,open2300 v1.10,2013-02-23 08:41:00,
2013-02-23 02:48:00,31.8,26.7,30.06,NE,45,0.0,-999.0,81,0.00,,,0.00,open2300 v1.10,2013-02-23 08:48:00,
2013-02-23 02:56:00,31.6,26.5,30.05,NE,45,0.0,-999.0,81,0.00,,,0.00,open2300 v1.10,2013-02-23 08:56:00,
2013-02-23 03:04:00,31.3,26.5,30.05,NE,45,0.0,-999.0,82,0.00,,,0.00,open2300 v1.10,2013-02-23 09:04:00,
2013-02-23 03:11:00,30.9,26.1,30.04,NE,45,0.0,-999.0,82,0.00,,,0.00,open2300 v1.10,2013-02-23 09:11:00,
2013-02-23 03:18:00,30.7,26.2,30.04,NE,45,0.0,-999.0,83,0.00,,,0.00,open2300 v1.10,2013-02-23 09:18:00,
2013-02-23 03:26:00,30.7,26.5,30.04,NE,45,0.0,-999.0,84,0.00,,,0.00,open2300 v1.10,2013-02-23 09:26:00,
2013-02-23 03:33:00,30.7,26.5,30.04,NE,45,0.0,-999.0,84,0.00,,,0.00,open2300 v1.10,2013-02-23 09:33:00,
2013-02-23 03:41:00,30.7,26.2,30.04,NE,45,0.0,-999.0,83,0.00,,,0.00,open2300 v1.10,2013-02-23 09:41:00,
2013-02-23 03:48:00,30.7,26.5,30.04,NE,45,0.0,-999.0,84,0.00,,,0.00,open2300 v1.10,2013-02-23 09:48:00,
2013-02-23 03:56:00,30.7,26.5,30.04,NE,45,0.0,-999.0,84,0.00,,,0.00,open2300 v1.10,2013-02-23 09:56:00,
2013-02-23 04:04:00,30.6,26.3,30.04,NE,45,0.0,-999.0,84,0.00,,,0.00,open2300 v1.10,2013-02-23 10:04:00,
2013-02-23 04:11:00,30.6,26.3,30.04,NE,45,0.0,-999.0,84,0.00,,,0.00,open2300 v1.10,2013-02-23 10:11:00,
2013-02-23 04:18:00,30.6,26.3,30.04,NE,45,0.0,-999.0,84,0.00,,,0.00,open2300 v1.10,2013-02-23 10:18:00,
2013-02-23 04:26:00,30.6,26.3,30.03,NE,45,0.0,-999.0,84,0.00,,,0.00,open2300 v1.10,2013-02-23 10:26:00,
2013-02-23 04:33:00,30.4,26.1,30.03,NE,45,0.0,-999.0,84,0.00,,,0.00,open2300 v1.10,2013-02-23 10:33:00,
2013-02-23 04:41:00,30.4,26.1,30.04,NE,45,0.0,-999.0,84,0.00,,,0.00,open2300 v1.10,2013-02-23 10:41:00,
2013-02-23 04:48:00,30.6,26.0,30.03,NE,45,0.0,-999.0,83,0.00,,,0.00,open2300 v1.10,2013-02-23 10:48:00,
2013-02-23 04:56:00,30.4,25.8,30.03,NE,45,0.0,-999.0,83,0.00,,,0.00,open2300 v1.10,2013-02-23 10:56:00,
2013-02-23 05:04:00,30.2,25.7,30.03,NE,45,0.0,-999.0,83,0.00,,,0.00,open2300 v1.10,2013-02-23 11:04:00,
2013-02-23 05:11:00,30.2,25.7,30.03,NE,45,0.0,-999.0,83,0.00,,,0.00,open2300 v1.10,2013-02-23 11:11:00,
2013-02-23 05:18:00,30.2,25.7,30.03,ENE,67,0.0,-999.0,83,0.00,,,0.00,open2300 v1.10,2013-02-23 11:18:00,
2013-02-23 05:26:00,30.2,25.7,30.03,ENE,67,0.0,-999.0,83,0.00,,,0.00,open2300 v1.10,2013-02-23 11:26:00,
2013-02-23 05:33:00,30.0,25.5,30.03,ENE,67,0.0,-999.0,83,0.00,,,0.00,open2300 v1.10,2013-02-23 11:33:00,
2013-02-23 05:41:00,30.0,25.5,30.03,ENE,67,0.0,-999.0,83,0.00,,,0.00,open2300 v1.10,2013-02-23 11:41:00,
2013-02-23 05:48:00,30.0,25.5,30.03,ENE,67,0.0,-999.0,83,0.00,,,0.00,open2300 v1.10,2013-02-23 11:48:00,
2013-02-23 05:56:00,30.0,25.8,30.03,ENE,67,0.0,-999.0,84,0.00,,,0.00,open2300 v1.10,2013-02-23 11:56:00,
2013-02-23 06:04:00,29.8,25.6,30.03,ENE,67,0.0,-999.0,84,0.00,,,0.00,open2300 v1.10,2013-02-23 12:04:00,
2013-02-23 06:11:00,29.8,25.6,30.03,ENE,67,0.0,-999.0,84,0.00,,,0.00,open2300 v1.10,2013-02-23 12:11:00,
2013-02-23 06:18:00,29.7,25.4,30.03,ENE,67,0.0,-999.0,84,0.00,,,0.00,open2300 v1.10,2013-02-23 12:18:00,
2013-02-23 06:26:00,29.5,25.2,30.03,ENE,67,0.0,-999.0,84,0.00,,,0.00,open2300 v1.10,2013-02-23 12:26:00,
2013-02-23 06:33:00,29.5,25.2,30.03,ENE,67,0.0,-999.0,84,0.00,,,0.00,open2300 v1.10,2013-02-23 12:33:00,
2013-02-23 06:41:00,29.3,25.0,30.03,ENE,67,0.0,-999.0,84,0.00,,,0.00,open2300 v1.10,2013-02-23 12:41:00,
2013-02-23 06:48:00,29.5,25.2,30.03,ENE,67,0.0,-999.0,84,0.00,,,0.00,open2300 v1.10,2013-02-23 12:48:00,
2013-02-23 06:56:00,29.8,25.6,30.03,ENE,67,0.0,-999.0,84,0.00,,,0.00,open2300 v1.10,2013-02-23 12:56:00,
2013-02-23 07:04:00,30.4,26.1,30.03,ENE,67,0.0,-999.0,84,0.00,,,0.00,open2300 v1.10,2013-02-23 13:04:00,
2013-02-23 07:11:00,30.7,26.5,30.03,ENE,67,0.0,-999.0,84,0.00,,,0.00,open2300 v1.10,2013-02-23 13:11:00,
2013-02-23 07:18:00,31.1,26.9,30.04,ENE,67,0.0,-999.0,84,0.00,,,0.00,open2300 v1.10,2013-02-23 13:18:00,
2013-02-23 07:26:00,32.5,28.0,30.04,NNE,22,0.0,-999.0,83,0.00,,,0.00,open2300 v1.10,2013-02-23 13:26:00,
2013-02-23 07:33:00,34.0,29.0,30.04,NE,45,0.0,-999.0,82,0.00,,,0.00,open2300 v1.10,2013-02-23 13:33:00,
2013-02-23 07:41:00,35.2,29.3,30.04,ENE,67,0.0,-999.0,79,0.00,,,0.00,open2300 v1.10,2013-02-23 13:41:00,
2013-02-23 07:48:00,37.6,31.0,30.04,ENE,67,0.0,-999.0,77,0.00,,,0.00,open2300 v1.10,2013-02-23 13:48:00,
2013-02-23 07:56:00,38.1,30.2,30.04,NE,45,0.0,-999.0,73,0.00,,,0.00,open2300 v1.10,2013-02-23 13:56:00,
2013-02-23 08:04:00,38.5,30.5,30.04,ENE,67,0.0,-999.0,73,0.00,,,0.00,open2300 v1.10,2013-02-23 14:04:00,
2013-02-23 08:11:00,39.0,29.9,30.04,ENE,67,0.0,-999.0,70,0.00,,,0.00,open2300 v1.10,2013-02-23 14:11:00,
2013-02-23 08:18:00,39.0,29.7,30.04,NE,45,0.0,-999.0,69,0.00,,,0.00,open2300 v1.10,2013-02-23 14:18:00,
2013-02-23 08:26:00,40.3,30.5,30.03,ENE,67,0.0,-999.0,68,0.00,,,0.00,open2300 v1.10,2013-02-23 14:26:00,
2013-02-23 08:33:00,41.2,31.4,30.03,East,90,0.0,-999.0,68,0.00,,,0.00,open2300 v1.10,2013-02-23 14:33:00,
2013-02-23 08:41:00,41.2,30.6,30.03,ENE,67,0.0,-999.0,66,0.00,,,0.00,open2300 v1.10,2013-02-23 14:41:00,
2013-02-23 08:48:00,40.6,29.8,30.02,ENE,67,0.0,-999.0,65,0.00,,,0.00,open2300 v1.10,2013-02-23 14:48:00,
2013-02-23 08:56:00,39.6,29.0,30.02,ENE,67,0.0,-999.0,66,0.00,,,0.00,open2300 v1.10,2013-02-23 14:56:00,
2013-02-23 09:04:00,39.4,28.5,30.02,NE,45,0.0,-999.0,65,0.00,,,0.00,open2300 v1.10,2013-02-23 15:04:00,
2013-02-23 09:11:00,38.8,28.0,30.03,ENE,67,0.0,-999.0,65,0.00,,,0.00,open2300 v1.10,2013-02-23 15:11:00,
2013-02-23 09:18:00,38.8,28.4,30.04,ENE,67,0.0,-999.0,66,0.00,,,0.00,open2300 v1.10,2013-02-23 15:18:00,
2013-02-23 09:26:00,38.8,28.0,30.05,NNW,337,0.0,-999.0,65,0.00,,,0.00,open2300 v1.10,2013-02-23 15:26:00,
2013-02-23 09:33:00,38.7,28.2,30.06,NNW,337,0.0,-999.0,66,0.00,,,0.00,open2300 v1.10,2013-02-23 15:33:00,
2013-02-23 09:41:00,39.6,28.7,30.06,ENE,67,0.0,-999.0,65,0.00,,,0.00,open2300 v1.10,2013-02-23 15:41:00,
2013-02-23 09:48:00,40.3,29.4,30.05,ENE,67,0.0,-999.0,65,0.00,,,0.00,open2300 v1.10,2013-02-23 15:48:00,
2013-02-23 09:56:00,42.6,30.5,30.04,ENE,67,0.0,-999.0,62,0.00,,,0.00,open2300 v1.10,2013-02-23 15:56:00,
2013-02-23 10:04:00,42.6,30.5,30.04,East,90,0.0,-999.0,62,0.00,,,0.00,open2300 v1.10,2013-02-23 16:04:00,
2013-02-23 10:11:00,43.3,30.4,30.05,NNW,337,0.0,-999.0,60,0.00,,,0.00,open2300 v1.10,2013-02-23 16:11:00,
2013-02-23 10:18:00,43.5,30.1,30.04,NE,45,0.0,-999.0,59,0.00,,,0.00,open2300 v1.10,2013-02-23 16:18:00,
2013-02-23 10:26:00,44.8,30.9,30.05,NE,45,0.0,-999.0,58,0.00,,,0.00,open2300 v1.10,2013-02-23 16:26:00,
2013-02-23 10:33:00,45.0,30.6,30.05,NNE,22,0.0,-999.0,57,0.00,,,0.00,open2300 v1.10,2013-02-23 16:33:00,
2013-02-23 10:41:00,46.2,31.3,30.05,NE,45,0.0,-999.0,56,0.00,,,0.00,open2300 v1.10,2013-02-23 16:41:00,
2013-02-23 10:48:00,46.8,31.8,30.04,NE,45,0.0,-999.0,56,0.00,,,0.00,open2300 v1.10,2013-02-23 16:48:00,
2013-02-23 10:56:00,48.4,32.0,30.04,NNE,22,0.0,-999.0,53,0.00,,,0.00,open2300 v1.10,2013-02-23 16:56:00,
2013-02-23 11:04:00,48.4,31.0,30.05,NNW,337,0.0,-999.0,51,0.00,,,0.00,open2300 v1.10,2013-02-23 17:04:00,
2013-02-23 11:11:00,48.0,30.7,30.05,North,0,0.0,-999.0,51,0.00,,,0.00,open2300 v1.10,2013-02-23 17:11:00,
2013-02-23 11:18:00,48.4,31.0,30.04,NNW,337,0.0,-999.0,51,0.00,,,0.00,open2300 v1.10,2013-02-23 17:18:00,
2013-02-23 11:26:00,49.1,31.3,30.04,SSE,157,0.0,-999.0,50,0.00,,,0.00,open2300 v1.10,2013-02-23 17:26:00,
2013-02-23 11:33:00,50.2,32.3,30.03,NE,45,0.0,-999.0,50,0.00,,,0.00,open2300 v1.10,2013-02-23 17:33:00,
2013-02-23 11:41:00,50.9,31.9,30.03,NE,45,0.0,-999.0,48,0.00,,,0.00,open2300 v1.10,2013-02-23 17:41:00,
2013-02-23 11:48:00,51.3,31.6,30.03,NE,45,0.0,-999.0,47,0.00,,,0.00,open2300 v1.10,2013-02-23 17:48:00,
2013-02-23 11:57:00,52.0,31.7,30.03,NE,45,0.0,-999.0,46,0.00,,,0.00,open2300 v1.10,2013-02-23 17:57:00,
2013-02-23 12:04:00,52.0,32.3,30.02,SSE,157,0.0,-999.0,47,0.00,,,0.00,open2300 v1.10,2013-02-23 18:04:00,
2013-02-23 12:11:00,52.5,32.2,30.02,North,0,0.0,-999.0,46,0.00,,,0.00,open2300 v1.10,2013-02-23 18:11:00,
2013-02-23 12:18:00,52.3,32.0,30.02,ENE,67,0.0,-999.0,46,0.00,,,0.00,open2300 v1.10,2013-02-23 18:18:00,
2013-02-23 12:26:00,52.2,31.3,30.01,South,180,0.0,-999.0,45,0.00,,,0.00,open2300 v1.10,2013-02-23 18:26:00,
2013-02-23 12:33:00,52.3,31.5,30.01,East,90,0.0,-999.0,45,0.00,,,0.00,open2300 v1.10,2013-02-23 18:33:00,
2013-02-23 12:41:00,51.6,30.9,30.00,ENE,67,0.0,-999.0,45,0.00,,,0.00,open2300 v1.10,2013-02-23 18:41:00,
2013-02-23 12:48:00,51.8,31.0,30.00,NE,45,0.0,-999.0,45,0.00,,,0.00,open2300 v1.10,2013-02-23 18:48:00,
2013-02-23 12:56:00,52.9,32.0,29.99,NE,45,0.0,-999.0,45,0.00,,,0.00,open2300 v1.10,2013-02-23 18:56:00,
2013-02-23 13:04:00,52.5,31.1,29.99,North,0,0.0,-999.0,44,0.00,,,0.00,open2300 v1.10,2013-02-23 19:04:00,
2013-02-23 13:11:00,52.3,31.5,29.98,NE,45,0.0,-999.0,45,0.00,,,0.00,open2300 v1.10,2013-02-23 19:11:00,
2013-02-23 13:18:00,52.7,30.7,29.98,West,270,0.0,-999.0,43,0.00,,,0.00,open2300 v1.10,2013-02-23 19:18:00,
2013-02-23 13:26:00,52.7,31.8,29.98,ESE,112,0.0,-999.0,45,0.00,,,0.00,open2300 v1.10,2013-02-23 19:26:00,
2013-02-23 13:33:00,52.9,30.9,29.98,NNW,337,0.0,-999.0,44,0.00,,,0.00,open2300 v1.10,2013-02-23 19:33:00,
2013-02-23 13:41:00,52.9,31.4,29.98,North,0,0.0,-999.0,44,0.00,,,0.00,open2300 v1.10,2013-02-23 19:41:00,
2013-02-23 13:48:00,53.8,31.7,29.98,North,0,0.0,-999.0,43,0.00,,,0.00,open2300 v1.10,2013-02-23 19:48:00,
2013-02-23 13:56:00,54.7,32.5,29.97,ENE,67,0.0,-999.0,43,0.00,,,0.00,open2300 v1.10,2013-02-23 19:56:00,
2013-02-23 14:04:00,54.7,31.9,29.97,East,90,0.0,-999.0,42,0.00,,,0.00,open2300 v1.10,2013-02-23 20:04:00,
2013-02-23 14:11:00,55.2,32.4,29.97,NNW,337,0.0,-999.0,42,0.00,,,0.00,open2300 v1.10,2013-02-23 20:11:00,
2013-02-23 14:18:00,54.3,30.5,29.98,West,270,0.0,-999.0,40,0.00,,,0.00,open2300 v1.10,2013-02-23 20:18:00,
2013-02-23 14:26:00,54.5,31.2,29.97,North,0,0.0,-999.0,41,0.00,,,0.00,open2300 v1.10,2013-02-23 20:26:00,
2013-02-23 14:33:00,55.6,32.2,29.97,North,0,0.0,-999.0,41,0.00,,,0.00,open2300 v1.10,2013-02-23 20:33:00,
2013-02-23 14:41:00,56.5,32.4,29.97,North,0,0.0,-999.0,40,0.00,,,0.00,open2300 v1.10,2013-02-23 20:41:00,
2013-02-23 14:48:00,54.9,31.0,29.97,West,270,0.0,-999.0,40,0.00,,,0.00,open2300 v1.10,2013-02-23 20:48:00,
2013-02-23 14:56:00,54.7,31.4,29.96,North,0,0.0,-999.0,41,0.00,,,0.00,open2300 v1.10,2013-02-23 20:56:00,
2013-02-23 15:04:00,54.1,30.9,29.96,North,0,0.0,-999.0,41,0.00,,,0.00,open2300 v1.10,2013-02-23 21:04:00,
2013-02-23 15:11:00,55.6,32.2,29.96,ENE,67,0.0,-999.0,41,0.00,,,0.00,open2300 v1.10,2013-02-23 21:11:00,
2013-02-23 15:18:00,55.9,32.5,29.96,ENE,67,0.0,-999.0,41,0.00,,,0.00,open2300 v1.10,2013-02-23 21:18:00,
2013-02-23 15:26:00,56.8,32.8,29.96,NNW,337,0.0,-999.0,40,0.00,,,0.00,open2300 v1.10,2013-02-23 21:26:00,
2013-02-23 15:33:00,57.4,33.2,29.96,North,0,0.0,-999.0,40,0.00,,,0.00,open2300 v1.10,2013-02-23 21:33:00,
2013-02-23 15:41:00,57.4,32.5,29.96,North,0,0.0,-999.0,39,0.00,,,0.00,open2300 v1.10,2013-02-23 21:41:00,
2013-02-23 15:48:00,55.0,31.1,29.96,West,270,0.0,-999.0,40,0.00,,,0.00,open2300 v1.10,2013-02-23 21:48:00,
2013-02-23 15:56:00,53.8,30.6,29.96,North,0,0.0,-999.0,41,0.00,,,0.00,open2300 v1.10,2013-02-23 21:56:00,
2013-02-23 16:04:00,52.7,30.1,29.96,NE,45,0.0,-999.0,42,0.00,,,0.00,open2300 v1.10,2013-02-23 22:04:00,
2013-02-23 16:11:00,52.0,30.1,29.96,North,0,0.0,-999.0,43,0.00,,,0.00,open2300 v1.10,2013-02-23 22:11:00,
2013-02-23 16:18:00,51.6,30.3,29.96,North,0,0.0,-999.0,44,0.00,,,0.00,open2300 v1.10,2013-02-23 22:18:00,
2013-02-23 16:26:00,50.4,29.2,29.97,NNE,22,0.0,-999.0,44,0.00,,,0.00,open2300 v1.10,2013-02-23 22:26:00,
2013-02-23 16:33:00,49.8,29.2,29.97,North,0,0.0,-999.0,45,0.00,,,0.00,open2300 v1.10,2013-02-23 22:33:00,
2013-02-23 16:41:00,49.3,29.2,29.97,NNW,337,0.0,-999.0,46,0.00,,,0.00,open2300 v1.10,2013-02-23 22:41:00,
2013-02-23 16:48:00,49.5,30.0,29.97,North,0,0.0,-999.0,47,0.00,,,0.00,open2300 v1.10,2013-02-23 22:48:00,
2013-02-23 16:56:00,50.2,30.7,29.97,NNE,22,0.0,-999.0,47,0.00,,,0.00,open2300 v1.10,2013-02-23 22:56:00,
2013-02-23 17:04:00,50.2,30.7,29.97,NNE,22,0.0,-999.0,47,0.00,,,0.00,open2300 v1.10,2013-02-23 23:04:00,
2013-02-23 17:11:00,49.1,29.6,29.97,NNE,22,0.0,-999.0,47,0.00,,,0.00,open2300 v1.10,2013-02-23 23:11:00,
2013-02-23 17:18:00,48.0,29.1,29.97,NNE,22,0.0,-999.0,48,0.00,,,0.00,open2300 v1.10,2013-02-23 23:18:00,
2013-02-23 17:26:00,46.9,28.7,29.97,North,0,0.0,-999.0,49,0.00,,,0.00,open2300 v1.10,2013-02-23 23:26:00,
2013-02-23 17:33:00,46.2,28.6,29.97,North,0,0.0,-999.0,50,0.00,,,0.00,open2300 v1.10,2013-02-23 23:33:00,
2013-02-23 17:41:00,45.5,28.9,29.97,North,0,0.0,-999.0,52,0.00,,,0.00,open2300 v1.10,2013-02-23 23:41:00,
2013-02-23 17:48:00,45.0,28.8,29.98,North,0,0.0,-999.0,53,0.00,,,0.00,open2300 v1.10,2013-02-23 23:48:00,
2013-02-23 17:56:00,44.2,28.1,29.98,North,0,0.0,-999.0,53,0.00,,,0.00,open2300 v1.10,2013-02-23 23:56:00,
2013-02-23 18:04:00,43.7,28.1,29.99,North,0,0.0,-999.0,54,0.00,,,0.00,open2300 v1.10,2013-02-24 00:04:00,
2013-02-23 18:11:00,43.2,28.5,29.99,North,0,0.0,-999.0,56,0.00,,,0.00,open2300 v1.10,2013-02-24 00:11:00,
2013-02-23 18:18:00,42.8,28.1,29.99,North,0,0.0,-999.0,56,0.00,,,0.00,open2300 v1.10,2013-02-24 00:18:00,
2013-02-23 18:26:00,42.4,28.2,29.99,North,0,0.0,-999.0,57,0.00,,,0.00,open2300 v1.10,2013-02-24 00:26:00,
2013-02-23 18:33:00,42.1,27.9,29.99,North,0,0.0,-999.0,57,0.00,,,0.00,open2300 v1.10,2013-02-24 00:33:00,
2013-02-23 18:41:00,41.5,27.8,30.00,North,0,0.0,-999.0,58,0.00,,,0.00,open2300 v1.10,2013-02-24 00:41:00,
2013-02-23 18:48:00,41.2,27.9,30.00,North,0,0.0,-999.0,59,0.00,,,0.00,open2300 v1.10,2013-02-24 00:48:00,
2013-02-23 18:56:00,40.8,28.0,29.99,North,0,0.0,-999.0,60,0.00,,,0.00,open2300 v1.10,2013-02-24 00:56:00,
2013-02-23 19:04:00,40.5,27.7,29.99,North,0,0.0,-999.0,60,0.00,,,0.00,open2300 v1.10,2013-02-24 01:04:00,
2013-02-23 19:11:00,39.9,27.5,29.99,North,0,0.0,-999.0,61,0.00,,,0.00,open2300 v1.10,2013-02-24 01:11:00,
2013-02-23 19:18:00,39.7,27.7,30.00,North,0,0.0,-999.0,62,0.00,,,0.00,open2300 v1.10,2013-02-24 01:18:00,
2013-02-23 19:26:00,39.0,27.0,30.00,North,0,0.0,-999.0,62,0.00,,,0.00,open2300 v1.10,2013-02-24 01:26:00,
2013-02-23 19:33:00,38.8,27.2,30.00,North,0,0.0,-999.0,63,0.00,,,0.00,open2300 v1.10,2013-02-24 01:33:00,
2013-02-23 19:41:00,38.5,27.3,30.01,North,0,0.0,-999.0,64,0.00,,,0.00,open2300 v1.10,2013-02-24 01:41:00,
2013-02-23 19:48:00,38.1,27.0,30.00,North,0,0.0,-999.0,64,0.00,,,0.00,open2300 v1.10,2013-02-24 01:48:00,
2013-02-23 19:56:00,37.6,27.2,30.00,North,0,0.0,-999.0,66,0.00,,,0.00,open2300 v1.10,2013-02-24 01:56:00,
2013-02-23 20:04:00,37.0,26.7,30.00,North,0,0.0,-999.0,66,0.00,,,0.00,open2300 v1.10,2013-02-24 02:04:00,
2013-02-23 20:11:00,36.3,26.8,30.00,North,0,0.0,-999.0,68,0.00,,,0.00,open2300 v1.10,2013-02-24 02:11:00,
2013-02-23 20:18:00,36.3,27.1,30.00,North,0,0.0,-999.0,69,0.00,,,0.00,open2300 v1.10,2013-02-24 02:18:00,
2013-02-23 20:27:00,36.3,27.5,30.00,North,0,0.0,-999.0,70,0.00,,,0.00,open2300 v1.10,2013-02-24 02:27:00,
2013-02-23 20:33:00,36.3,27.5,30.00,North,0,0.0,-999.0,70,0.00,,,0.00,open2300 v1.10,2013-02-24 02:33:00,
2013-02-23 20:41:00,36.3,27.8,30.01,North,0,0.0,-999.0,71,0.00,,,0.00,open2300 v1.10,2013-02-24 02:41:00,
2013-02-23 20:48:00,36.1,27.6,30.01,North,0,0.0,-999.0,71,0.00,,,0.00,open2300 v1.10,2013-02-24 02:48:00,
2013-02-23 20:56:00,35.8,27.3,30.01,North,0,0.0,-999.0,71,0.00,,,0.00,open2300 v1.10,2013-02-24 02:56:00,
2013-02-23 21:04:00,35.4,26.9,30.01,North,0,0.0,-999.0,71,0.00,,,0.00,open2300 v1.10,2013-02-24 03:04:00,
2013-02-23 21:12:00,34.7,26.2,30.01,North,0,0.0,-999.0,71,0.00,,,0.00,open2300 v1.10,2013-02-24 03:12:00,
2013-02-23 21:18:00,34.3,26.2,30.01,North,0,0.0,-999.0,72,0.00,,,0.00,open2300 v1.10,2013-02-24 03:18:00,
2013-02-23 21:26:00,33.6,26.1,30.01,North,0,0.0,-999.0,74,0.00,,,0.00,open2300 v1.10,2013-02-24 03:26:00,
2013-02-23 21:33:00,33.4,26.0,30.02,North,0,0.0,-999.0,74,0.00,,,0.00,open2300 v1.10,2013-02-24 03:33:00,
2013-02-23 21:42:00,33.3,25.8,30.02,North,0,0.0,-999.0,74,0.00,,,0.00,open2300 v1.10,2013-02-24 03:42:00,
2013-02-23 21:48:00,33.1,25.6,30.02,North,0,0.0,-999.0,74,0.00,,,0.00,open2300 v1.10,2013-02-24 03:48:00,
2013-02-23 21:57:00,32.9,25.8,30.03,North,0,0.0,-999.0,75,0.00,,,0.00,open2300 v1.10,2013-02-24 03:57:00,
2013-02-23 22:04:00,32.9,26.1,30.02,North,0,0.0,-999.0,76,0.00,,,0.00,open2300 v1.10,2013-02-24 04:04:00,
2013-02-23 22:12:00,32.9,26.1,30.02,North,0,0.0,-999.0,76,0.00,,,0.00,open2300 v1.10,2013-02-24 04:12:00,
2013-02-23 22:18:00,32.9,26.4,30.03,North,0,0.0,-999.0,77,0.00,,,0.00,open2300 v1.10,2013-02-24 04:18:00,
2013-02-23 22:27:00,32.5,26.1,30.02,North,0,0.0,-999.0,77,0.00,,,0.00,open2300 v1.10,2013-02-24 04:27:00,
2013-02-23 22:33:00,32.2,26.1,30.02,North,0,0.0,-999.0,78,0.00,,,0.00,open2300 v1.10,2013-02-24 04:33:00,
2013-02-23 22:41:00,31.8,25.8,30.02,North,0,0.0,-999.0,78,0.00,,,0.00,open2300 v1.10,2013-02-24 04:41:00,
2013-02-23 22:48:00,31.6,25.9,30.02,North,0,0.0,-999.0,79,0.00,,,0.00,open2300 v1.10,2013-02-24 04:48:00,
2013-02-23 22:56:00,31.5,25.7,30.02,North,0,0.0,-999.0,79,0.00,,,0.00,open2300 v1.10,2013-02-24 04:56:00,
2013-02-23 23:04:00,31.3,25.6,30.02,North,0,0.0,-999.0,79,0.00,,,0.00,open2300 v1.10,2013-02-24 05:04:00,
2013-02-23 23:11:00,31.1,25.7,30.02,North,0,0.0,-999.0,80,0.00,,,0.00,open2300 v1.10,2013-02-24 05:11:00,
2013-02-23 23:18:00,30.9,25.5,30.01,North,0,0.0,-999.0,80,0.00,,,0.00,open2300 v1.10,2013-02-24 05:18:00,
2013-02-23 23:27:00,31.1,26.0,30.01,North,0,0.0,-999.0,81,0.00,,,0.00,open2300 v1.10,2013-02-24 05:27:00,
2013-02-23 23:33:00,31.1,26.0,30.01,North,0,0.0,-999.0,81,0.00,,,0.00,open2300 v1.10,2013-02-24 05:33:00,
2013-02-23 23:41:00,30.9,25.8,30.01,North,0,0.0,-999.0,81,0.00,,,0.00,open2300 v1.10,2013-02-24 05:41:00,
2013-02-23 23:48:00,30.7,25.6,30.01,North,0,0.0,-999.0,81,0.00,,,0.00,open2300 v1.10,2013-02-24 05:48:00,
2013-02-23 23:56:00,30.7,25.6,30.01,North,0,0.0,-999.0,81,0.00,,,0.00,open2300 v1.10,2013-02-24 05:56:00,